createdAt,value
2023-11-10T00:00:33.702Z,10.13
2023-11-10T00:03:56.914Z,10.19
2023-11-10T00:06:59.967Z,10.19
2023-11-10T00:10:05.305Z,10.06
2023-11-10T00:13:09.510Z,9.94
2023-11-10T00:16:12.736Z,10.12
2023-11-10T00:19:15.990Z,10.01
2023-11-10T00:22:19.079Z,9.87
2023-11-10T00:25:22.217Z,9.95
2023-11-10T00:28:25.434Z,9.93
2023-11-10T00:31:43.224Z,9.87
2023-11-10T00:34:51.177Z,9.80
2023-11-10T00:37:54.386Z,9.90
2023-11-10T00:40:57.476Z,10.05
2023-11-10T00:44:00.636Z,9.86
2023-11-10T00:47:04.206Z,9.90
2023-11-10T00:50:07.909Z,9.73
2023-11-10T00:53:10.870Z,9.64
2023-11-10T00:56:13.910Z,9.69
2023-11-10T00:59:19.654Z,9.74
2023-11-10T01:02:22.734Z,9.69
2023-11-10T01:05:26.369Z,9.70
2023-11-10T01:08:29.515Z,9.85
2023-11-10T01:11:34.029Z,9.72
2023-11-10T01:14:37.310Z,9.74
2023-11-10T01:17:41.829Z,9.70
2023-11-10T01:20:46.188Z,9.68
2023-11-10T01:23:51.767Z,9.64
2023-11-10T01:27:02.115Z,9.68
2023-11-10T01:30:05.781Z,9.63
2023-11-10T01:33:09.553Z,9.59
2023-11-10T01:36:12.724Z,9.57
2023-11-10T01:39:15.837Z,9.55
2023-11-10T01:42:19.464Z,9.51
2023-11-10T01:45:22.641Z,9.46
2023-11-10T01:48:26.963Z,9.50
2023-11-10T01:51:32.341Z,9.50
2023-11-10T01:54:37.079Z,9.57
2023-11-10T01:57:40.282Z,9.54
2023-11-10T02:00:43.496Z,9.48
2023-11-10T02:03:46.871Z,9.45
2023-11-10T02:06:49.901Z,9.44
2023-11-10T02:09:53.433Z,9.43
2023-11-10T02:12:57.872Z,9.34
2023-11-10T02:16:01.165Z,9.37
2023-11-10T02:19:05.183Z,9.35
2023-11-10T02:22:08.684Z,9.42
2023-11-10T02:25:17.824Z,9.31
2023-11-10T02:28:21.336Z,9.28
2023-11-10T02:31:24.236Z,9.56
2023-11-10T02:34:28.023Z,9.33
2023-11-10T02:37:30.909Z,9.28
2023-11-10T02:40:36.977Z,9.22
2023-11-10T02:43:39.942Z,9.26
2023-11-10T02:46:44.937Z,9.26
2023-11-10T02:49:47.715Z,9.24
2023-11-10T02:52:50.869Z,9.22
2023-11-10T02:55:53.447Z,9.25
2023-11-10T02:58:57.303Z,9.28
2023-11-10T03:02:00.079Z,9.30
2023-11-10T03:05:04.084Z,9.32
2023-11-10T03:08:07.263Z,9.28
2023-11-10T03:11:25.388Z,9.28
2023-11-10T03:14:31.101Z,9.27
2023-11-10T03:17:35.039Z,9.28
2023-11-10T03:20:37.732Z,9.50
2023-11-10T03:23:40.940Z,9.27
2023-11-10T03:26:43.669Z,9.27
2023-11-10T03:29:46.768Z,9.36
2023-11-10T03:32:50.249Z,9.28
2023-11-10T03:35:54.245Z,9.25
2023-11-10T03:38:56.987Z,9.23
2023-11-10T03:42:01.821Z,9.11
2023-11-10T03:45:05.349Z,9.13
2023-11-10T03:48:09.112Z,9.06
2023-11-10T03:51:12.821Z,9.10
2023-11-10T03:54:16.494Z,9.16
2023-11-10T03:57:19.283Z,9.06
2023-11-10T04:00:33.056Z,8.99
2023-11-10T04:03:43.865Z,9.00
2023-11-10T04:06:47.075Z,8.96
2023-11-10T04:09:50.346Z,9.02
2023-11-10T04:12:53.665Z,8.93
2023-11-10T04:15:58.071Z,9.01
2023-11-10T04:19:01.185Z,8.96
2023-11-10T04:22:04.302Z,8.89
2023-11-10T04:25:07.682Z,8.92
2023-11-10T04:28:13.338Z,8.97
2023-11-10T04:31:17.464Z,8.94
2023-11-10T04:34:20.808Z,8.83
2023-11-10T04:37:24.412Z,8.80
2023-11-10T04:40:29.371Z,8.80
2023-11-10T04:43:32.471Z,8.81
2023-11-10T04:46:45.369Z,8.78
2023-11-10T04:49:49.590Z,8.81
2023-11-10T04:52:53.179Z,8.80
2023-11-10T04:56:02.273Z,8.81
2023-11-10T04:59:05.387Z,8.80
2023-11-10T05:02:10.215Z,8.89
2023-11-10T05:05:14.673Z,8.83
2023-11-10T05:08:17.753Z,8.80
2023-11-10T05:11:20.776Z,8.81
2023-11-10T05:14:24.011Z,8.79
2023-11-10T05:17:26.927Z,8.81
2023-11-10T05:20:33.601Z,8.79
2023-11-10T05:23:42.129Z,8.82
2023-11-10T05:26:45.989Z,8.81
2023-11-10T05:29:48.952Z,8.71
2023-11-10T05:32:51.955Z,8.71
2023-11-10T05:35:54.931Z,8.69
2023-11-10T05:38:58.109Z,8.72
2023-11-10T05:42:01.315Z,8.71
2023-11-10T05:45:04.495Z,8.72
2023-11-10T05:48:07.585Z,8.75
2023-11-10T05:51:10.572Z,8.75
2023-11-10T05:54:15.124Z,8.74
2023-11-10T05:57:18.711Z,8.77
2023-11-10T06:00:23.656Z,8.83
2023-11-10T06:03:28.510Z,8.82
2023-11-10T06:06:31.638Z,8.83
2023-11-10T06:09:35.781Z,8.92
2023-11-10T06:12:39.359Z,8.92
2023-11-10T06:15:42.748Z,8.93
2023-11-10T06:18:47.061Z,8.94
2023-11-10T06:21:52.125Z,8.95
2023-11-10T06:24:55.136Z,8.99
2023-11-10T06:27:58.390Z,9.06
2023-11-10T06:31:01.012Z,9.17
2023-11-10T06:34:04.758Z,9.06
2023-11-10T06:37:07.502Z,9.05
2023-11-10T06:40:11.981Z,9.12
2023-11-10T06:43:14.671Z,9.22
2023-11-10T06:46:24.932Z,9.23
2023-11-10T06:49:27.851Z,9.32
2023-11-10T06:52:32.205Z,9.34
2023-11-10T06:55:35.726Z,9.31
2023-11-10T06:58:40.668Z,9.32
2023-11-10T07:01:44.120Z,9.38
2023-11-10T07:04:47.358Z,9.41
2023-11-10T07:07:52.301Z,9.50
2023-11-10T07:10:59.314Z,9.49
2023-11-10T07:14:03.916Z,9.48
2023-11-10T07:17:07.541Z,9.51
2023-11-10T07:20:16.074Z,9.64
2023-11-10T07:23:26.305Z,9.65
2023-11-10T07:26:30.019Z,9.77
2023-11-10T07:29:37.897Z,9.78
2023-11-10T07:32:40.613Z,9.82
2023-11-10T07:35:43.998Z,9.83
2023-11-10T07:38:46.744Z,9.90
2023-11-10T07:41:49.856Z,9.91
2023-11-10T07:44:52.623Z,9.94
2023-11-10T07:47:59.054Z,9.99
2023-11-10T07:51:03.435Z,10.06
2023-11-10T07:54:09.438Z,10.08
2023-11-10T07:57:12.887Z,10.09
2023-11-10T08:00:21.395Z,10.11
2023-11-10T08:03:27.411Z,10.23
2023-11-10T08:06:31.689Z,10.33
2023-11-10T08:09:36.123Z,10.57
2023-11-10T08:12:41.935Z,10.82
2023-11-10T08:15:49.304Z,11.08
2023-11-10T08:18:57.644Z,11.36
2023-11-10T08:22:03.919Z,11.91
2023-11-10T08:25:07.806Z,12.82
2023-11-10T08:28:10.821Z,13.67
2023-11-10T08:31:14.690Z,14.72
2023-11-10T08:34:18.545Z,15.24
2023-11-10T08:37:21.642Z,15.54
2023-11-10T08:40:24.704Z,15.29
2023-11-10T08:43:27.768Z,15.11
2023-11-10T08:46:31.477Z,14.97
2023-11-10T08:49:34.432Z,14.94
2023-11-10T08:52:39.911Z,14.99
2023-11-10T08:55:43.464Z,14.65
2023-11-10T08:58:46.413Z,14.44
2023-11-10T09:01:50.471Z,14.35
2023-11-10T09:04:53.597Z,14.19
2023-11-10T09:07:56.976Z,14.14
2023-11-10T09:11:00.076Z,14.03
2023-11-10T09:14:04.520Z,14.36
2023-11-10T09:17:08.546Z,14.43
2023-11-10T09:20:12.113Z,14.55
2023-11-10T09:23:17.859Z,14.46
2023-11-10T09:26:25.889Z,14.50
2023-11-10T09:29:29.180Z,14.52
2023-11-10T09:32:37.807Z,14.68
2023-11-10T09:35:43.224Z,14.76
2023-11-10T09:38:49.135Z,14.87
2023-11-10T09:41:57.889Z,14.68
2023-11-10T09:45:03.104Z,14.43
2023-11-10T09:48:09.622Z,14.14
2023-11-10T09:51:14.575Z,13.93
2023-11-10T09:54:20.948Z,13.88
2023-11-10T09:57:29.260Z,13.98
2023-11-10T10:00:34.371Z,13.94
2023-11-10T10:03:38.527Z,13.79
2023-11-10T10:06:51.687Z,13.75
2023-11-10T10:09:56.771Z,13.62
2023-11-10T10:12:59.490Z,13.61
2023-11-10T10:16:07.444Z,13.70
2023-11-10T10:19:14.906Z,13.58
2023-11-10T10:22:29.435Z,13.55
2023-11-10T10:25:58.637Z,13.57
2023-11-10T10:29:02.374Z,13.55
2023-11-10T10:32:05.096Z,13.43
2023-11-10T10:35:08.876Z,13.38
2023-11-10T10:38:15.439Z,13.39
2023-11-10T10:41:21.836Z,13.38
2023-11-10T10:44:25.047Z,13.37
2023-11-10T10:47:29.250Z,13.24
2023-11-10T10:50:34.562Z,13.15
2023-11-10T10:53:40.511Z,13.13
2023-11-10T10:56:45.786Z,13.12
2023-11-10T10:59:51.060Z,13.13
2023-11-10T11:03:00.402Z,13.17
2023-11-10T11:06:28.562Z,13.24
2023-11-10T11:09:37.351Z,13.25
2023-11-10T11:13:20.488Z,13.28
2023-11-10T11:16:38.751Z,13.48
2023-11-10T11:19:44.400Z,13.48
2023-11-10T11:22:48.648Z,13.64
2023-11-10T11:26:01.925Z,14.00
2023-11-10T11:29:08.745Z,14.29
2023-11-10T11:32:20.783Z,14.34
2023-11-10T11:35:23.773Z,14.30
2023-11-10T11:38:27.557Z,14.35
2023-11-10T11:41:31.391Z,14.49
2023-11-10T11:44:38.044Z,14.49
2023-11-10T11:47:41.636Z,14.50
2023-11-10T11:50:44.916Z,14.44
2023-11-10T11:53:47.525Z,14.29
2023-11-10T11:56:51.489Z,14.00
2023-11-10T11:59:56.384Z,13.71
2023-11-10T12:02:59.991Z,13.41
2023-11-10T12:06:05.267Z,13.26
2023-11-10T12:09:08.517Z,13.13
2023-11-10T12:12:25.462Z,13.06
2023-11-10T12:15:49.482Z,12.97
2023-11-10T12:18:57.215Z,12.82
2023-11-10T12:22:25.468Z,12.76
2023-11-10T12:25:47.346Z,12.64
2023-11-10T12:29:03.978Z,12.58
2023-11-10T12:32:09.017Z,12.46
2023-11-10T12:35:15.533Z,12.40
2023-11-10T12:38:18.517Z,12.31
2023-11-10T12:41:21.474Z,12.26
2023-11-10T12:44:25.159Z,12.21
2023-11-10T12:47:34.969Z,12.23
2023-11-10T12:50:38.298Z,12.20
2023-11-10T12:53:41.934Z,12.15
2023-11-10T12:56:45.124Z,12.10
2023-11-10T12:59:48.023Z,12.16
2023-11-10T13:02:51.047Z,12.18
2023-11-10T13:05:56.465Z,12.20
2023-11-10T13:09:00.565Z,12.17
2023-11-10T13:12:07.317Z,12.21
2023-11-10T13:15:10.691Z,12.13
2023-11-10T13:18:16.439Z,12.09
2023-11-10T13:21:23.485Z,11.98
2023-11-10T13:24:27.656Z,11.94
2023-11-10T13:27:31.917Z,11.98
2023-11-10T13:30:37.437Z,11.89
2023-11-10T13:33:43.830Z,11.82
2023-11-10T13:36:48.507Z,11.74
2023-11-10T13:39:53.781Z,11.75
2023-11-10T13:42:59.267Z,11.77
2023-11-10T13:46:02.516Z,11.73
2023-11-10T13:49:07.002Z,11.77
2023-11-10T13:52:12.696Z,11.73
2023-11-10T13:55:15.757Z,11.81
2023-11-10T13:58:18.733Z,11.74
2023-11-10T14:01:21.818Z,11.68
2023-11-10T14:04:26.027Z,11.67
2023-11-10T14:07:29.045Z,11.65
2023-11-10T14:10:32.114Z,11.66
2023-11-10T14:13:39.187Z,11.65
2023-11-10T14:16:42.359Z,11.75
2023-11-10T14:19:45.286Z,11.75
2023-11-10T14:22:48.277Z,11.71
2023-11-10T14:25:51.576Z,11.65
2023-11-10T14:28:54.979Z,11.67
2023-11-10T14:32:00.187Z,11.61
2023-11-10T14:35:04.398Z,11.63
2023-11-10T14:38:09.465Z,11.60
2023-11-10T14:41:12.541Z,11.57
2023-11-10T14:44:16.033Z,11.58
2023-11-10T14:47:20.850Z,11.59
2023-11-10T14:50:50.262Z,11.51
2023-11-10T14:53:53.257Z,11.48
2023-11-10T14:56:56.200Z,11.49
2023-11-10T14:59:59.185Z,11.41
2023-11-10T15:03:05.311Z,11.39
2023-11-10T15:06:09.181Z,11.31
2023-11-10T15:09:13.680Z,11.32
2023-11-10T15:12:16.715Z,11.31
2023-11-10T15:15:19.876Z,11.22
2023-11-10T15:18:25.074Z,11.15
2023-11-10T15:21:28.591Z,11.12
2023-11-10T15:24:32.546Z,11.10
2023-11-10T15:27:35.945Z,11.06
2023-11-10T15:30:39.528Z,11.03
2023-11-10T15:33:42.570Z,10.92
2023-11-10T15:36:56.115Z,10.90
2023-11-10T15:40:00.846Z,10.88
2023-11-10T15:43:07.145Z,10.78
2023-11-10T15:46:10.244Z,10.84
2023-11-10T15:49:15.603Z,10.81
2023-11-10T15:52:19.603Z,10.74
2023-11-10T15:55:22.864Z,10.77
2023-11-10T15:58:25.813Z,10.75
2023-11-10T16:01:28.932Z,10.65
2023-11-10T16:04:32.408Z,10.65
2023-11-10T16:07:36.056Z,10.59
2023-11-10T16:10:39.705Z,10.59
2023-11-10T16:13:42.903Z,10.60
2023-11-10T16:16:46.111Z,10.60
2023-11-10T16:19:48.878Z,10.56
2023-11-10T16:22:51.954Z,10.60
2023-11-10T16:25:55.244Z,10.69
2023-11-10T16:29:06.807Z,10.61
2023-11-10T16:32:10.050Z,10.59
2023-11-10T16:35:13.534Z,10.62
2023-11-10T16:38:18.638Z,10.57
2023-11-10T16:41:27.489Z,10.60
2023-11-10T16:44:30.190Z,10.62
2023-11-10T16:47:33.890Z,10.57
2023-11-10T16:50:37.365Z,10.62
2023-11-10T16:53:40.598Z,10.66
2023-11-10T16:56:43.302Z,10.56
2023-11-10T16:59:46.974Z,10.52
2023-11-10T17:02:52.495Z,10.49
2023-11-10T17:05:59.080Z,10.54
2023-11-10T17:09:02.012Z,10.47
2023-11-10T17:12:07.977Z,10.44
2023-11-10T17:15:12.304Z,10.43
2023-11-10T17:18:18.303Z,10.45
2023-11-10T17:21:21.317Z,10.57
2023-11-10T17:24:25.472Z,10.43
2023-11-10T17:27:28.424Z,10.36
2023-11-10T17:30:31.655Z,10.45
2023-11-10T17:33:40.280Z,10.33
2023-11-10T17:36:49.525Z,10.36
2023-11-10T17:39:53.986Z,10.27
2023-11-10T17:42:57.354Z,10.23
2023-11-10T17:46:00.314Z,10.36
2023-11-10T17:49:04.099Z,10.30
2023-11-10T17:52:07.538Z,10.27
2023-11-10T17:55:14.249Z,10.24
2023-11-10T17:58:24.055Z,10.18
2023-11-10T18:01:28.621Z,10.13
2023-11-10T18:05:55.842Z,10.06
2023-11-10T18:09:27.797Z,10.10
2023-11-10T18:12:38.600Z,10.11
2023-11-10T18:15:41.808Z,10.26
2023-11-10T18:18:44.997Z,10.33
2023-11-10T18:21:48.156Z,10.24
2023-11-10T18:25:04.484Z,10.19
2023-11-10T18:28:07.530Z,10.26
2023-11-10T18:31:10.530Z,10.27
2023-11-10T18:34:14.754Z,10.09
2023-11-10T18:37:18.151Z,10.03
2023-11-10T18:40:22.042Z,9.99
2023-11-10T18:43:25.927Z,10.10
2023-11-10T18:46:31.449Z,9.95
2023-11-10T18:49:34.518Z,10.03
2023-11-10T18:52:37.500Z,10.02
2023-11-10T18:55:40.651Z,10.00
2023-11-10T18:58:43.598Z,9.81
2023-11-10T19:01:46.691Z,9.82
2023-11-10T19:04:51.072Z,9.85
2023-11-10T19:07:54.128Z,10.02
2023-11-10T19:10:57.054Z,10.00
2023-11-10T19:14:01.304Z,9.92
2023-11-10T19:17:05.840Z,9.95
2023-11-10T19:20:09.109Z,9.92
2023-11-10T19:23:11.999Z,9.72
2023-11-10T19:26:15.880Z,9.90
2023-11-10T19:29:18.739Z,9.89
2023-11-10T19:32:22.560Z,9.79
2023-11-10T19:35:26.008Z,9.87
2023-11-10T19:38:28.849Z,9.99
2023-11-10T19:41:32.845Z,9.90
2023-11-10T19:44:37.151Z,9.81
2023-11-10T19:47:40.383Z,9.70
2023-11-10T19:50:43.297Z,9.84
2023-11-10T19:54:56.547Z,9.85
2023-11-10T19:57:11.030Z,9.88
2023-11-10T20:03:21.583Z,9.79
2023-11-10T20:06:24.722Z,9.90
2023-11-10T20:09:28.748Z,9.97
2023-11-10T20:12:32.758Z,9.90
2023-11-10T20:15:36.659Z,9.88
2023-11-10T20:18:39.829Z,10.02
2023-11-10T20:21:42.926Z,9.99
2023-11-10T20:24:46.466Z,9.79
2023-11-10T20:27:49.607Z,9.91
2023-11-10T20:30:53.010Z,9.91
2023-11-10T20:33:57.463Z,9.84
2023-11-10T20:37:02.944Z,9.92
2023-11-10T20:40:11.042Z,9.91
2023-11-10T20:43:17.133Z,9.83
2023-11-10T20:46:20.808Z,9.81
2023-11-10T20:49:39.622Z,9.90
2023-11-10T20:52:45.079Z,9.92
2023-11-10T20:55:47.965Z,9.90
2023-11-10T20:59:21.901Z,9.87
2023-11-10T21:02:24.892Z,10.00
2023-11-10T21:05:27.845Z,10.06
2023-11-10T21:08:30.797Z,10.04
2023-11-10T21:11:33.967Z,9.87
2023-11-10T21:14:37.003Z,9.82
2023-11-10T21:17:40.240Z,9.78
2023-11-10T21:20:46.494Z,9.87
2023-11-10T21:23:50.035Z,9.91
2023-11-10T21:26:52.988Z,9.90
2023-11-10T21:29:55.973Z,9.75
2023-11-10T21:33:00.434Z,9.81
2023-11-10T21:36:04.081Z,9.80
2023-11-10T21:39:12.306Z,9.82
2023-11-10T21:42:15.402Z,9.68
2023-11-10T21:45:19.407Z,9.56
2023-11-10T21:48:22.616Z,9.55
2023-11-10T21:51:25.744Z,9.60
2023-11-10T21:54:30.081Z,9.58
2023-11-10T21:57:33.170Z,9.55
2023-11-10T22:00:36.507Z,9.54
2023-11-10T22:03:42.334Z,9.52
2023-11-10T22:06:45.875Z,9.51
2023-11-10T22:09:49.158Z,9.53
2023-11-10T22:12:54.403Z,9.45
2023-11-10T22:15:57.567Z,9.54
2023-11-10T22:19:00.502Z,9.55
2023-11-10T22:22:04.824Z,9.51
2023-11-10T22:25:11.860Z,9.50
2023-11-10T22:28:21.109Z,9.45
2023-11-10T22:31:24.095Z,9.48
2023-11-10T22:34:27.882Z,9.44
2023-11-10T22:37:32.634Z,9.39
2023-11-10T22:40:37.167Z,9.41
2023-11-10T22:43:40.887Z,9.43
2023-11-10T22:46:44.793Z,9.70
2023-11-10T22:49:48.652Z,9.77
2023-11-10T22:52:52.488Z,9.67
2023-11-10T22:55:55.455Z,9.59
2023-11-10T22:59:02.076Z,9.57
2023-11-10T23:02:05.921Z,9.62
2023-11-10T23:05:11.155Z,9.54
2023-11-10T23:08:14.356Z,9.57
2023-11-10T23:11:17.620Z,9.44
2023-11-10T23:14:21.536Z,9.44
2023-11-10T23:17:25.110Z,9.59
2023-11-10T23:20:34.481Z,9.49
2023-11-10T23:23:38.744Z,9.60
2023-11-10T23:26:41.699Z,9.40
2023-11-10T23:29:45.039Z,9.53
2023-11-10T23:32:49.074Z,9.44
2023-11-10T23:36:01.596Z,9.43
2023-11-10T23:39:05.010Z,9.53
2023-11-10T23:42:09.310Z,9.42
2023-11-10T23:45:12.022Z,9.55
2023-11-10T23:48:15.415Z,9.53
2023-11-10T23:51:18.248Z,9.45
2023-11-10T23:54:21.349Z,9.41
2023-11-10T23:57:24.270Z,9.42
